sensor_id;sensor_type;location;lat;lon;timestamp;P1;durP1;ratioP1;P2;durP2;ratioP2
23730;SDS011;12046;44.702;10.622;2022-12-24T00:00:36;54.42;;;46.10;;
23730;SDS011;12046;44.702;10.622;2022-12-24T00:03:02;55.75;;;45.55;;
23730;SDS011;12046;44.702;10.622;2022-12-24T00:05:28;57.13;;;49.22;;
23730;SDS011;12046;44.702;10.622;2022-12-24T00:07:54;53.83;;;41.78;;
23730;SDS011;12046;44.702;10.622;2022-12-24T00:10:20;51.50;;;42.42;;
23730;SDS011;12046;44.702;10.622;2022-12-24T00:12:46;56.17;;;47.13;;
23730;SDS011;12046;44.702;10.622;2022-12-24T00:15:12;45.35;;;37.72;;
23730;SDS011;12046;44.702;10.622;2022-12-24T00:17:38;49.15;;;39.85;;
23730;SDS011;12046;44.702;10.622;2022-12-24T00:20:04;48.17;;;38.97;;
23730;SDS011;12046;44.702;10.622;2022-12-24T00:22:30;60.88;;;49.78;;
23730;SDS011;12046;44.702;10.622;2022-12-24T00:24:56;46.80;;;40.42;;
23730;SDS011;12046;44.702;10.622;2022-12-24T00:27:22;50.95;;;44.25;;
23730;SDS011;12046;44.702;10.622;2022-12-24T00:29:48;45.97;;;38.33;;
23730;SDS011;12046;44.702;10.622;2022-12-24T00:32:14;51.65;;;41.72;;
23730;SDS011;12046;44.702;10.622;2022-12-24T00:34:40;51.08;;;39.78;;
23730;SDS011;12046;44.702;10.622;2022-12-24T00:37:06;46.28;;;38.58;;
23730;SDS011;12046;44.702;10.622;2022-12-24T00:39:32;46.83;;;40.35;;
23730;SDS011;12046;44.702;10.622;2022-12-24T00:41:58;49.33;;;42.42;;
23730;SDS011;12046;44.702;10.622;2022-12-24T00:44:24;47.17;;;38.72;;
23730;SDS011;12046;44.702;10.622;2022-12-24T00:46:50;54.42;;;46.70;;
23730;SDS011;12046;44.702;10.622;2022-12-24T00:49:16;55.55;;;43.75;;
23730;SDS011;12046;44.702;10.622;2022-12-24T00:51:42;51.85;;;45.20;;
23730;SDS011;12046;44.702;10.622;2022-12-24T00:54:08;50.22;;;41.00;;
23730;SDS011;12046;44.702;10.622;2022-12-24T00:56:34;50.60;;;42.30;;
23730;SDS011;12046;44.702;10.622;2022-12-24T00:59:00;52.15;;;43.80;;
23730;SDS011;12046;44.702;10.622;2022-12-24T01:01:27;54.88;;;43.72;;
23730;SDS011;12046;44.702;10.622;2022-12-24T01:03:53;51.47;;;42.30;;
23730;SDS011;12046;44.702;10.622;2022-12-24T01:06:40;51.35;;;40.78;;
23730;SDS011;12046;44.702;10.622;2022-12-24T01:09:06;48.08;;;38.90;;
23730;SDS011;12046;44.702;10.622;2022-12-24T01:11:32;54.45;;;39.78;;
23730;SDS011;12046;44.702;10.622;2022-12-24T01:13:58;50.20;;;40.53;;
23730;SDS011;12046;44.702;10.622;2022-12-24T01:16:24;46.75;;;38.28;;
23730;SDS011;12046;44.702;10.622;2022-12-24T01:18:49;47.53;;;37.53;;
23730;SDS011;12046;44.702;10.622;2022-12-24T01:21:15;49.47;;;40.53;;
23730;SDS011;12046;44.702;10.622;2022-12-24T01:23:42;51.00;;;43.45;;
23730;SDS011;12046;44.702;10.622;2022-12-24T01:26:08;50.67;;;42.72;;
23730;SDS011;12046;44.702;10.622;2022-12-24T01:28:36;55.58;;;46.13;;
23730;SDS011;12046;44.702;10.622;2022-12-24T01:31:08;53.45;;;45.20;;
23730;SDS011;12046;44.702;10.622;2022-12-24T01:33:42;50.53;;;39.42;;
23730;SDS011;12046;44.702;10.622;2022-12-24T01:36:09;56.63;;;48.50;;
23730;SDS011;12046;44.702;10.622;2022-12-24T01:38:35;62.42;;;51.47;;
23730;SDS011;12046;44.702;10.622;2022-12-24T01:41:01;56.92;;;44.65;;
23730;SDS011;12046;44.702;10.622;2022-12-24T01:43:46;57.80;;;43.13;;
23730;SDS011;12046;44.702;10.622;2022-12-24T01:46:22;58.33;;;42.90;;
23730;SDS011;12046;44.702;10.622;2022-12-24T01:48:53;65.55;;;48.20;;
23730;SDS011;12046;44.702;10.622;2022-12-24T01:56:39;69.47;;;49.92;;
23730;SDS011;12046;44.702;10.622;2022-12-24T02:01:38;64.97;;;46.63;;
23730;SDS011;12046;44.702;10.622;2022-12-24T02:04:07;72.15;;;51.83;;
23730;SDS011;12046;44.702;10.622;2022-12-24T02:06:41;68.35;;;47.13;;
23730;SDS011;12046;44.702;10.622;2022-12-24T02:09:07;71.63;;;50.60;;
23730;SDS011;12046;44.702;10.622;2022-12-24T02:11:33;72.25;;;50.45;;
23730;SDS011;12046;44.702;10.622;2022-12-24T02:14:02;65.45;;;48.78;;
23730;SDS011;12046;44.702;10.622;2022-12-24T02:27:32;78.27;;;57.60;;
23730;SDS011;12046;44.702;10.622;2022-12-24T02:30:42;75.88;;;53.40;;
23730;SDS011;12046;44.702;10.622;2022-12-24T02:33:15;68.15;;;51.30;;
23730;SDS011;12046;44.702;10.622;2022-12-24T02:35:57;68.28;;;48.42;;
23730;SDS011;12046;44.702;10.622;2022-12-24T02:38:31;66.78;;;48.28;;
23730;SDS011;12046;44.702;10.622;2022-12-24T02:41:13;62.42;;;46.28;;
23730;SDS011;12046;44.702;10.622;2022-12-24T02:43:43;67.40;;;47.55;;
23730;SDS011;12046;44.702;10.622;2022-12-24T02:46:12;63.10;;;45.53;;
23730;SDS011;12046;44.702;10.622;2022-12-24T02:48:48;61.47;;;47.25;;
23730;SDS011;12046;44.702;10.622;2022-12-24T02:51:15;58.15;;;45.58;;
23730;SDS011;12046;44.702;10.622;2022-12-24T02:53:45;58.75;;;43.42;;
23730;SDS011;12046;44.702;10.622;2022-12-24T03:07:16;51.15;;;42.35;;
23730;SDS011;12046;44.702;10.622;2022-12-24T03:12:40;59.13;;;46.75;;
23730;SDS011;12046;44.702;10.622;2022-12-24T03:15:10;59.35;;;45.90;;
23730;SDS011;12046;44.702;10.622;2022-12-24T03:17:41;58.17;;;47.90;;
23730;SDS011;12046;44.702;10.622;2022-12-24T03:20:10;57.70;;;46.20;;
23730;SDS011;12046;44.702;10.622;2022-12-24T03:22:39;53.42;;;41.83;;
23730;SDS011;12046;44.702;10.622;2022-12-24T03:25:05;56.88;;;44.35;;
23730;SDS011;12046;44.702;10.622;2022-12-24T03:27:31;55.10;;;42.92;;
23730;SDS011;12046;44.702;10.622;2022-12-24T03:30:01;56.90;;;44.53;;
23730;SDS011;12046;44.702;10.622;2022-12-24T03:32:30;53.70;;;42.50;;
23730;SDS011;12046;44.702;10.622;2022-12-24T03:34:56;52.78;;;43.17;;
23730;SDS011;12046;44.702;10.622;2022-12-24T03:37:23;59.15;;;45.05;;
23730;SDS011;12046;44.702;10.622;2022-12-24T03:39:49;59.67;;;46.70;;
23730;SDS011;12046;44.702;10.622;2022-12-24T03:42:15;52.13;;;40.28;;
23730;SDS011;12046;44.702;10.622;2022-12-24T03:44:41;54.63;;;45.00;;
23730;SDS011;12046;44.702;10.622;2022-12-24T03:47:07;54.83;;;44.75;;
23730;SDS011;12046;44.702;10.622;2022-12-24T03:49:33;53.88;;;42.10;;
23730;SDS011;12046;44.702;10.622;2022-12-24T03:51:59;56.60;;;44.70;;
23730;SDS011;12046;44.702;10.622;2022-12-24T03:54:25;54.80;;;44.15;;
23730;SDS011;12046;44.702;10.622;2022-12-24T03:56:51;65.43;;;50.28;;
23730;SDS011;12046;44.702;10.622;2022-12-24T03:59:16;60.05;;;45.05;;
23730;SDS011;12046;44.702;10.622;2022-12-24T04:01:42;63.10;;;49.75;;
23730;SDS011;12046;44.702;10.622;2022-12-24T04:04:08;66.35;;;52.30;;
23730;SDS011;12046;44.702;10.622;2022-12-24T04:06:34;63.70;;;48.08;;
23730;SDS011;12046;44.702;10.622;2022-12-24T04:09:03;61.53;;;51.50;;
23730;SDS011;12046;44.702;10.622;2022-12-24T04:11:29;62.17;;;48.72;;
23730;SDS011;12046;44.702;10.622;2022-12-24T04:13:56;59.70;;;44.78;;
23730;SDS011;12046;44.702;10.622;2022-12-24T04:16:22;64.63;;;51.42;;
23730;SDS011;12046;44.702;10.622;2022-12-24T04:18:48;55.20;;;42.80;;
23730;SDS011;12046;44.702;10.622;2022-12-24T04:21:14;53.30;;;42.63;;
23730;SDS011;12046;44.702;10.622;2022-12-24T04:23:41;57.65;;;44.70;;
23730;SDS011;12046;44.702;10.622;2022-12-24T04:26:08;57.15;;;46.15;;
23730;SDS011;12046;44.702;10.622;2022-12-24T04:28:36;60.47;;;48.45;;
23730;SDS011;12046;44.702;10.622;2022-12-24T04:31:04;58.03;;;47.92;;
23730;SDS011;12046;44.702;10.622;2022-12-24T04:33:31;54.53;;;41.83;;
23730;SDS011;12046;44.702;10.622;2022-12-24T04:35:58;51.05;;;40.40;;
23730;SDS011;12046;44.702;10.622;2022-12-24T04:38:25;62.47;;;51.47;;
23730;SDS011;12046;44.702;10.622;2022-12-24T04:41:08;60.90;;;49.13;;
23730;SDS011;12046;44.702;10.622;2022-12-24T04:43:36;60.50;;;49.28;;
23730;SDS011;12046;44.702;10.622;2022-12-24T04:46:03;54.58;;;43.45;;
23730;SDS011;12046;44.702;10.622;2022-12-24T04:48:34;60.67;;;49.60;;
23730;SDS011;12046;44.702;10.622;2022-12-24T04:51:01;56.60;;;42.30;;
23730;SDS011;12046;44.702;10.622;2022-12-24T04:53:29;55.08;;;43.17;;
23730;SDS011;12046;44.702;10.622;2022-12-24T04:55:56;57.78;;;45.13;;
23730;SDS011;12046;44.702;10.622;2022-12-24T04:58:22;58.47;;;47.72;;
23730;SDS011;12046;44.702;10.622;2022-12-24T05:00:49;56.78;;;44.08;;
23730;SDS011;12046;44.702;10.622;2022-12-24T05:03:15;57.53;;;45.20;;
23730;SDS011;12046;44.702;10.622;2022-12-24T05:05:41;62.75;;;48.92;;
23730;SDS011;12046;44.702;10.622;2022-12-24T05:08:07;55.28;;;42.80;;
23730;SDS011;12046;44.702;10.622;2022-12-24T05:10:33;58.45;;;43.13;;
23730;SDS011;12046;44.702;10.622;2022-12-24T05:12:59;55.00;;;43.33;;
23730;SDS011;12046;44.702;10.622;2022-12-24T05:15:24;55.63;;;43.90;;
23730;SDS011;12046;44.702;10.622;2022-12-24T05:17:50;59.22;;;48.35;;
23730;SDS011;12046;44.702;10.622;2022-12-24T05:20:16;59.80;;;46.38;;
23730;SDS011;12046;44.702;10.622;2022-12-24T05:22:42;65.88;;;54.15;;
23730;SDS011;12046;44.702;10.622;2022-12-24T05:25:29;60.60;;;49.70;;
23730;SDS011;12046;44.702;10.622;2022-12-24T05:28:19;52.13;;;42.10;;
23730;SDS011;12046;44.702;10.622;2022-12-24T05:30:45;54.42;;;43.22;;
23730;SDS011;12046;44.702;10.622;2022-12-24T05:33:11;66.03;;;50.60;;
23730;SDS011;12046;44.702;10.622;2022-12-24T05:35:38;57.90;;;45.65;;
23730;SDS011;12046;44.702;10.622;2022-12-24T05:38:04;64.85;;;52.75;;
23730;SDS011;12046;44.702;10.622;2022-12-24T05:40:30;64.90;;;49.92;;
23730;SDS011;12046;44.702;10.622;2022-12-24T05:42:56;60.55;;;48.15;;
23730;SDS011;12046;44.702;10.622;2022-12-24T05:45:22;64.97;;;48.00;;
23730;SDS011;12046;44.702;10.622;2022-12-24T05:47:47;65.57;;;51.00;;
23730;SDS011;12046;44.702;10.622;2022-12-24T05:50:13;58.67;;;44.42;;
23730;SDS011;12046;44.702;10.622;2022-12-24T05:52:39;58.90;;;42.72;;
23730;SDS011;12046;44.702;10.622;2022-12-24T05:55:05;57.95;;;45.38;;
23730;SDS011;12046;44.702;10.622;2022-12-24T05:57:32;56.92;;;43.08;;
23730;SDS011;12046;44.702;10.622;2022-12-24T05:59:57;62.67;;;48.83;;
23730;SDS011;12046;44.702;10.622;2022-12-24T06:02:23;62.75;;;51.35;;
23730;SDS011;12046;44.702;10.622;2022-12-24T06:04:49;60.88;;;53.50;;
23730;SDS011;12046;44.702;10.622;2022-12-24T06:07:15;54.40;;;42.38;;
23730;SDS011;12046;44.702;10.622;2022-12-24T06:09:41;64.13;;;49.78;;
23730;SDS011;12046;44.702;10.622;2022-12-24T06:12:07;62.47;;;51.58;;
23730;SDS011;12046;44.702;10.622;2022-12-24T06:14:32;55.85;;;45.25;;
23730;SDS011;12046;44.702;10.622;2022-12-24T06:16:58;59.17;;;45.85;;
23730;SDS011;12046;44.702;10.622;2022-12-24T06:19:24;58.13;;;46.17;;
23730;SDS011;12046;44.702;10.622;2022-12-24T06:21:50;59.85;;;48.03;;
23730;SDS011;12046;44.702;10.622;2022-12-24T06:24:16;60.22;;;44.50;;
23730;SDS011;12046;44.702;10.622;2022-12-24T06:26:42;66.57;;;53.33;;
23730;SDS011;12046;44.702;10.622;2022-12-24T06:29:08;63.65;;;48.90;;
23730;SDS011;12046;44.702;10.622;2022-12-24T06:31:34;68.30;;;50.75;;
23730;SDS011;12046;44.702;10.622;2022-12-24T06:34:00;58.28;;;46.75;;
23730;SDS011;12046;44.702;10.622;2022-12-24T06:36:26;70.75;;;55.80;;
23730;SDS011;12046;44.702;10.622;2022-12-24T06:38:52;60.22;;;44.33;;
23730;SDS011;12046;44.702;10.622;2022-12-24T06:41:19;65.93;;;48.88;;
23730;SDS011;12046;44.702;10.622;2022-12-24T06:43:47;59.90;;;45.97;;
23730;SDS011;12046;44.702;10.622;2022-12-24T06:46:15;68.22;;;53.15;;
23730;SDS011;12046;44.702;10.622;2022-12-24T06:48:44;61.25;;;50.15;;
23730;SDS011;12046;44.702;10.622;2022-12-24T06:51:12;58.13;;;45.22;;
23730;SDS011;12046;44.702;10.622;2022-12-24T06:53:38;65.13;;;50.38;;
23730;SDS011;12046;44.702;10.622;2022-12-24T06:56:09;72.05;;;55.63;;
23730;SDS011;12046;44.702;10.622;2022-12-24T06:58:36;67.95;;;53.80;;
23730;SDS011;12046;44.702;10.622;2022-12-24T07:01:03;59.97;;;46.33;;
23730;SDS011;12046;44.702;10.622;2022-12-24T07:03:30;56.95;;;44.13;;
23730;SDS011;12046;44.702;10.622;2022-12-24T07:05:57;70.65;;;53.75;;
23730;SDS011;12046;44.702;10.622;2022-12-24T07:08:23;64.28;;;46.58;;
23730;SDS011;12046;44.702;10.622;2022-12-24T07:10:50;62.88;;;48.38;;
23730;SDS011;12046;44.702;10.622;2022-12-24T07:13:17;62.65;;;45.78;;
23730;SDS011;12046;44.702;10.622;2022-12-24T07:15:43;59.92;;;46.83;;
23730;SDS011;12046;44.702;10.622;2022-12-24T07:18:09;69.63;;;56.40;;
23730;SDS011;12046;44.702;10.622;2022-12-24T07:20:36;64.80;;;51.03;;
23730;SDS011;12046;44.702;10.622;2022-12-24T07:23:03;61.03;;;47.08;;
23730;SDS011;12046;44.702;10.622;2022-12-24T07:25:29;71.35;;;54.90;;
23730;SDS011;12046;44.702;10.622;2022-12-24T07:27:55;58.45;;;45.35;;
23730;SDS011;12046;44.702;10.622;2022-12-24T07:30:41;64.15;;;50.17;;
23730;SDS011;12046;44.702;10.622;2022-12-24T07:33:26;74.18;;;56.80;;
23730;SDS011;12046;44.702;10.622;2022-12-24T07:36:19;56.85;;;45.83;;
23730;SDS011;12046;44.702;10.622;2022-12-24T07:38:47;61.88;;;47.30;;
23730;SDS011;12046;44.702;10.622;2022-12-24T07:41:14;64.32;;;50.67;;
23730;SDS011;12046;44.702;10.622;2022-12-24T07:43:40;68.95;;;53.10;;
23730;SDS011;12046;44.702;10.622;2022-12-24T07:46:06;65.38;;;50.28;;
23730;SDS011;12046;44.702;10.622;2022-12-24T07:48:32;57.10;;;44.33;;
23730;SDS011;12046;44.702;10.622;2022-12-24T07:50:58;55.40;;;44.00;;
23730;SDS011;12046;44.702;10.622;2022-12-24T07:53:25;54.95;;;43.28;;
23730;SDS011;12046;44.702;10.622;2022-12-24T07:55:52;57.70;;;46.67;;
23730;SDS011;12046;44.702;10.622;2022-12-24T07:58:18;56.30;;;44.90;;
23730;SDS011;12046;44.702;10.622;2022-12-24T08:00:44;55.30;;;45.15;;
23730;SDS011;12046;44.702;10.622;2022-12-24T08:03:15;58.88;;;45.40;;
23730;SDS011;12046;44.702;10.622;2022-12-24T08:05:42;56.10;;;42.72;;
23730;SDS011;12046;44.702;10.622;2022-12-24T08:08:08;61.35;;;48.83;;
23730;SDS011;12046;44.702;10.622;2022-12-24T08:10:37;57.38;;;46.90;;
23730;SDS011;12046;44.702;10.622;2022-12-24T08:13:07;60.78;;;51.30;;
23730;SDS011;12046;44.702;10.622;2022-12-24T08:15:33;63.38;;;50.55;;
23730;SDS011;12046;44.702;10.622;2022-12-24T08:17:59;60.40;;;50.80;;
23730;SDS011;12046;44.702;10.622;2022-12-24T08:20:25;52.10;;;43.13;;
23730;SDS011;12046;44.702;10.622;2022-12-24T08:22:51;56.03;;;45.05;;
23730;SDS011;12046;44.702;10.622;2022-12-24T08:25:17;57.92;;;47.05;;
23730;SDS011;12046;44.702;10.622;2022-12-24T08:27:45;54.47;;;43.70;;
23730;SDS011;12046;44.702;10.622;2022-12-24T08:30:11;60.17;;;50.13;;
23730;SDS011;12046;44.702;10.622;2022-12-24T08:32:38;60.92;;;50.20;;
23730;SDS011;12046;44.702;10.622;2022-12-24T08:35:04;58.30;;;46.42;;
23730;SDS011;12046;44.702;10.622;2022-12-24T08:37:33;62.78;;;51.08;;
23730;SDS011;12046;44.702;10.622;2022-12-24T08:40:00;59.75;;;46.42;;
23730;SDS011;12046;44.702;10.622;2022-12-24T08:42:26;61.83;;;50.60;;
23730;SDS011;12046;44.702;10.622;2022-12-24T08:44:51;63.30;;;52.47;;
23730;SDS011;12046;44.702;10.622;2022-12-24T08:47:17;54.75;;;44.53;;
23730;SDS011;12046;44.702;10.622;2022-12-24T08:49:43;63.25;;;54.53;;
23730;SDS011;12046;44.702;10.622;2022-12-24T08:52:09;60.15;;;48.80;;
23730;SDS011;12046;44.702;10.622;2022-12-24T08:54:35;56.78;;;42.30;;
23730;SDS011;12046;44.702;10.622;2022-12-24T08:57:01;63.92;;;51.80;;
23730;SDS011;12046;44.702;10.622;2022-12-24T08:59:27;59.47;;;47.17;;
23730;SDS011;12046;44.702;10.622;2022-12-24T09:01:53;66.40;;;53.17;;
23730;SDS011;12046;44.702;10.622;2022-12-24T09:04:19;70.63;;;56.20;;
23730;SDS011;12046;44.702;10.622;2022-12-24T09:06:45;67.57;;;55.97;;
23730;SDS011;12046;44.702;10.622;2022-12-24T09:09:10;74.45;;;56.63;;
23730;SDS011;12046;44.702;10.622;2022-12-24T09:11:36;68.75;;;53.88;;
23730;SDS011;12046;44.702;10.622;2022-12-24T09:14:02;70.65;;;52.45;;
23730;SDS011;12046;44.702;10.622;2022-12-24T09:16:28;78.20;;;60.67;;
23730;SDS011;12046;44.702;10.622;2022-12-24T09:18:55;67.72;;;54.38;;
23730;SDS011;12046;44.702;10.622;2022-12-24T09:21:22;66.55;;;55.17;;
23730;SDS011;12046;44.702;10.622;2022-12-24T09:23:48;64.63;;;52.88;;
23730;SDS011;12046;44.702;10.622;2022-12-24T09:26:15;72.10;;;57.08;;
23730;SDS011;12046;44.702;10.622;2022-12-24T09:28:42;67.95;;;57.45;;
23730;SDS011;12046;44.702;10.622;2022-12-24T09:31:09;66.35;;;54.60;;
23730;SDS011;12046;44.702;10.622;2022-12-24T09:33:38;75.00;;;57.00;;
23730;SDS011;12046;44.702;10.622;2022-12-24T09:36:09;77.75;;;57.78;;
23730;SDS011;12046;44.702;10.622;2022-12-24T09:38:36;70.95;;;56.13;;
23730;SDS011;12046;44.702;10.622;2022-12-24T09:41:14;73.30;;;59.38;;
23730;SDS011;12046;44.702;10.622;2022-12-24T09:43:44;71.22;;;60.10;;
23730;SDS011;12046;44.702;10.622;2022-12-24T09:49:01;88.50;;;66.78;;
23730;SDS011;12046;44.702;10.622;2022-12-24T09:51:38;76.70;;;61.83;;
23730;SDS011;12046;44.702;10.622;2022-12-24T09:54:23;78.32;;;60.85;;
23730;SDS011;12046;44.702;10.622;2022-12-24T09:57:00;79.80;;;66.97;;
23730;SDS011;12046;44.702;10.622;2022-12-24T09:59:40;74.38;;;61.00;;
23730;SDS011;12046;44.702;10.622;2022-12-24T10:02:12;78.95;;;62.28;;
23730;SDS011;12046;44.702;10.622;2022-12-24T10:04:41;75.40;;;61.80;;
23730;SDS011;12046;44.702;10.622;2022-12-24T10:13:03;80.97;;;63.53;;
23730;SDS011;12046;44.702;10.622;2022-12-24T10:15:45;78.72;;;60.65;;
23730;SDS011;12046;44.702;10.622;2022-12-24T10:26:56;77.93;;;61.53;;
23730;SDS011;12046;44.702;10.622;2022-12-24T10:29:31;87.20;;;68.40;;
23730;SDS011;12046;44.702;10.622;2022-12-24T10:34:34;82.90;;;64.78;;
23730;SDS011;12046;44.702;10.622;2022-12-24T10:37:23;85.25;;;67.07;;
23730;SDS011;12046;44.702;10.622;2022-12-24T10:39:53;91.22;;;69.28;;
23730;SDS011;12046;44.702;10.622;2022-12-24T10:42:22;87.28;;;67.15;;
23730;SDS011;12046;44.702;10.622;2022-12-24T10:44:54;91.43;;;71.47;;
23730;SDS011;12046;44.702;10.622;2022-12-24T10:47:26;84.28;;;67.32;;
23730;SDS011;12046;44.702;10.622;2022-12-24T10:49:56;79.15;;;61.50;;
23730;SDS011;12046;44.702;10.622;2022-12-24T10:52:28;90.70;;;64.57;;
23730;SDS011;12046;44.702;10.622;2022-12-24T10:55:07;83.95;;;68.07;;
23730;SDS011;12046;44.702;10.622;2022-12-24T10:57:40;83.20;;;65.22;;
23730;SDS011;12046;44.702;10.622;2022-12-24T11:00:17;90.43;;;66.22;;
23730;SDS011;12046;44.702;10.622;2022-12-24T11:02:45;86.95;;;64.57;;
23730;SDS011;12046;44.702;10.622;2022-12-24T11:08:01;87.78;;;69.63;;
23730;SDS011;12046;44.702;10.622;2022-12-24T11:10:39;87.00;;;65.28;;
23730;SDS011;12046;44.702;10.622;2022-12-24T11:13:23;84.55;;;66.25;;
23730;SDS011;12046;44.702;10.622;2022-12-24T11:15:59;86.03;;;60.70;;
23730;SDS011;12046;44.702;10.622;2022-12-24T11:18:27;80.10;;;64.03;;
23730;SDS011;12046;44.702;10.622;2022-12-24T11:20:53;84.20;;;63.92;;
23730;SDS011;12046;44.702;10.622;2022-12-24T11:23:23;87.97;;;67.72;;
23730;SDS011;12046;44.702;10.622;2022-12-24T11:26:06;82.97;;;65.97;;
23730;SDS011;12046;44.702;10.622;2022-12-24T11:28:32;82.88;;;63.78;;
23730;SDS011;12046;44.702;10.622;2022-12-24T11:31:02;82.40;;;63.83;;
23730;SDS011;12046;44.702;10.622;2022-12-24T11:33:47;83.60;;;66.35;;
23730;SDS011;12046;44.702;10.622;2022-12-24T11:36:16;85.88;;;66.95;;
23730;SDS011;12046;44.702;10.622;2022-12-24T11:38:53;87.85;;;70.95;;
23730;SDS011;12046;44.702;10.622;2022-12-24T11:41:22;83.72;;;63.65;;
23730;SDS011;12046;44.702;10.622;2022-12-24T11:43:50;81.78;;;61.00;;
23730;SDS011;12046;44.702;10.622;2022-12-24T11:46:40;84.57;;;65.88;;
23730;SDS011;12046;44.702;10.622;2022-12-24T11:51:37;79.65;;;64.95;;
23730;SDS011;12046;44.702;10.622;2022-12-24T11:54:38;83.97;;;65.40;;
23730;SDS011;12046;44.702;10.622;2022-12-24T11:57:01;83.03;;;65.10;;
23730;SDS011;12046;44.702;10.622;2022-12-24T11:59:38;86.10;;;66.85;;
23730;SDS011;12046;44.702;10.622;2022-12-24T12:02:27;86.18;;;64.03;;
23730;SDS011;12046;44.702;10.622;2022-12-24T12:04:58;81.10;;;65.63;;
23730;SDS011;12046;44.702;10.622;2022-12-24T12:07:30;83.53;;;66.18;;
23730;SDS011;12046;44.702;10.622;2022-12-24T12:10:04;85.80;;;66.93;;
23730;SDS011;12046;44.702;10.622;2022-12-24T12:12:35;86.60;;;69.68;;
23730;SDS011;12046;44.702;10.622;2022-12-24T12:15:10;83.88;;;63.78;;
23730;SDS011;12046;44.702;10.622;2022-12-24T12:17:39;81.35;;;62.42;;
23730;SDS011;12046;44.702;10.622;2022-12-24T12:20:09;82.10;;;62.80;;
23730;SDS011;12046;44.702;10.622;2022-12-24T12:22:54;80.95;;;63.30;;
23730;SDS011;12046;44.702;10.622;2022-12-24T12:25:44;88.32;;;70.53;;
23730;SDS011;12046;44.702;10.622;2022-12-24T12:31:50;79.95;;;66.10;;
23730;SDS011;12046;44.702;10.622;2022-12-24T12:36:39;86.90;;;67.18;;
23730;SDS011;12046;44.702;10.622;2022-12-24T12:39:16;91.85;;;75.22;;
23730;SDS011;12046;44.702;10.622;2022-12-24T12:52:40;84.25;;;65.18;;
23730;SDS011;12046;44.702;10.622;2022-12-24T12:58:15;95.07;;;79.00;;
23730;SDS011;12046;44.702;10.622;2022-12-24T13:00:52;95.63;;;75.72;;
23730;SDS011;12046;44.702;10.622;2022-12-24T13:17:16;82.70;;;65.93;;
23730;SDS011;12046;44.702;10.622;2022-12-24T13:20:24;97.95;;;81.90;;
23730;SDS011;12046;44.702;10.622;2022-12-24T13:36:13;88.78;;;67.00;;
23730;SDS011;12046;44.702;10.622;2022-12-24T13:38:56;90.18;;;72.10;;
23730;SDS011;12046;44.702;10.622;2022-12-24T13:46:48;99.75;;;79.70;;
23730;SDS011;12046;44.702;10.622;2022-12-24T13:52:50;92.10;;;72.30;;
23730;SDS011;12046;44.702;10.622;2022-12-24T13:55:17;95.10;;;74.68;;
23730;SDS011;12046;44.702;10.622;2022-12-24T13:57:54;83.43;;;67.45;;
23730;SDS011;12046;44.702;10.622;2022-12-24T14:00:29;88.35;;;69.40;;
23730;SDS011;12046;44.702;10.622;2022-12-24T14:03:19;93.23;;;73.57;;
23730;SDS011;12046;44.702;10.622;2022-12-24T14:05:51;97.18;;;75.82;;
23730;SDS011;12046;44.702;10.622;2022-12-24T14:16:04;88.25;;;67.82;;
23730;SDS011;12046;44.702;10.622;2022-12-24T14:18:39;91.10;;;72.60;;
23730;SDS011;12046;44.702;10.622;2022-12-24T14:21:19;90.50;;;71.05;;
23730;SDS011;12046;44.702;10.622;2022-12-24T14:23:50;96.15;;;75.05;;
23730;SDS011;12046;44.702;10.622;2022-12-24T14:32:21;91.50;;;72.45;;
23730;SDS011;12046;44.702;10.622;2022-12-24T14:35:03;93.13;;;70.97;;
23730;SDS011;12046;44.702;10.622;2022-12-24T14:37:32;91.05;;;71.40;;
23730;SDS011;12046;44.702;10.622;2022-12-24T14:39:58;98.50;;;77.60;;
23730;SDS011;12046;44.702;10.622;2022-12-24T14:42:28;91.43;;;69.35;;
23730;SDS011;12046;44.702;10.622;2022-12-24T14:52:56;88.05;;;67.20;;
23730;SDS011;12046;44.702;10.622;2022-12-24T14:55:35;90.20;;;66.72;;
23730;SDS011;12046;44.702;10.622;2022-12-24T14:58:18;86.32;;;62.92;;
23730;SDS011;12046;44.702;10.622;2022-12-24T15:00:44;92.38;;;70.15;;
23730;SDS011;12046;44.702;10.622;2022-12-24T15:03:12;88.43;;;67.53;;
23730;SDS011;12046;44.702;10.622;2022-12-24T15:05:40;90.00;;;67.45;;
23730;SDS011;12046;44.702;10.622;2022-12-24T15:08:07;87.72;;;65.25;;
23730;SDS011;12046;44.702;10.622;2022-12-24T15:10:39;88.45;;;66.47;;
23730;SDS011;12046;44.702;10.622;2022-12-24T15:15:51;89.22;;;65.32;;
23730;SDS011;12046;44.702;10.622;2022-12-24T15:18:23;91.55;;;67.72;;
23730;SDS011;12046;44.702;10.622;2022-12-24T15:20:53;89.82;;;70.40;;
23730;SDS011;12046;44.702;10.622;2022-12-24T15:23:25;82.45;;;62.72;;
23730;SDS011;12046;44.702;10.622;2022-12-24T15:26:18;84.80;;;62.22;;
23730;SDS011;12046;44.702;10.622;2022-12-24T15:28:45;87.68;;;63.25;;
23730;SDS011;12046;44.702;10.622;2022-12-24T15:31:18;80.18;;;57.85;;
23730;SDS011;12046;44.702;10.622;2022-12-24T15:33:50;83.25;;;64.03;;
23730;SDS011;12046;44.702;10.622;2022-12-24T15:36:30;85.72;;;62.25;;
23730;SDS011;12046;44.702;10.622;2022-12-24T15:39:03;86.07;;;63.85;;
23730;SDS011;12046;44.702;10.622;2022-12-24T15:41:36;82.20;;;63.95;;
23730;SDS011;12046;44.702;10.622;2022-12-24T15:44:27;88.88;;;66.15;;
23730;SDS011;12046;44.702;10.622;2022-12-24T15:46:58;82.18;;;64.90;;
23730;SDS011;12046;44.702;10.622;2022-12-24T15:49:25;81.43;;;60.70;;
23730;SDS011;12046;44.702;10.622;2022-12-24T15:52:00;79.07;;;59.58;;
23730;SDS011;12046;44.702;10.622;2022-12-24T15:54:32;79.15;;;58.58;;
23730;SDS011;12046;44.702;10.622;2022-12-24T15:56:58;89.50;;;67.45;;
23730;SDS011;12046;44.702;10.622;2022-12-24T15:59:35;73.45;;;56.38;;
23730;SDS011;12046;44.702;10.622;2022-12-24T16:02:35;77.68;;;57.42;;
23730;SDS011;12046;44.702;10.622;2022-12-24T16:05:16;74.18;;;56.65;;
23730;SDS011;12046;44.702;10.622;2022-12-24T16:07:45;79.95;;;59.35;;
23730;SDS011;12046;44.702;10.622;2022-12-24T16:13:29;82.75;;;61.58;;
23730;SDS011;12046;44.702;10.622;2022-12-24T16:15:59;84.40;;;62.28;;
23730;SDS011;12046;44.702;10.622;2022-12-24T16:18:32;91.70;;;72.72;;
23730;SDS011;12046;44.702;10.622;2022-12-24T16:21:17;95.60;;;71.93;;
23730;SDS011;12046;44.702;10.622;2022-12-24T16:23:54;93.18;;;68.38;;
23730;SDS011;12046;44.702;10.622;2022-12-24T16:26:22;100.25;;;71.75;;
23730;SDS011;12046;44.702;10.622;2022-12-24T16:28:49;92.57;;;66.70;;
23730;SDS011;12046;44.702;10.622;2022-12-24T16:31:16;97.03;;;71.80;;
23730;SDS011;12046;44.702;10.622;2022-12-24T16:33:44;89.65;;;67.57;;
23730;SDS011;12046;44.702;10.622;2022-12-24T16:36:11;96.00;;;70.03;;
23730;SDS011;12046;44.702;10.622;2022-12-24T16:38:38;94.00;;;68.80;;
23730;SDS011;12046;44.702;10.622;2022-12-24T16:41:22;95.78;;;67.63;;
23730;SDS011;12046;44.702;10.622;2022-12-24T16:43:48;94.30;;;69.88;;
23730;SDS011;12046;44.702;10.622;2022-12-24T16:46:14;96.85;;;74.18;;